Hovedside
METAR-TAF:

METAR-TAF

Lufthavner :

Hongkong internasjonale lufthavn

Hongkong, Kina

breddegrad: 22-19N, lengdegrad: 113-55E, høyde over havet: 9 m

Gjeldene værobservasjon

Denne rapporten ble laget for 35 minutter siden, klokken 19:00 UTC
Vind 9 kt fra Øst-sørøst
Temperatur 22°C
Luftfuktighet 73%
Trykk 1015 hPa
Sikt 10 km eller mer
ingen skyer under 1500 m og ingen bygeskyer

METAR: VHHH 151900Z 11009KT CAVOK 22/17 Q1015 NOSIG

Tid: 03:35 (19:35 UTC)

Varsel

Denne rapporten ble laget for 2 timer og 35 minutter siden, klokken 17:00 UTC
Varsel gyldig fra 15. klokken 18 UTC til 16. klokken 24 UTC
Vind 10 kt fra Øst
Sikt 10 km eller mer
Få skyer i en høyde av 3000 ft
Midlertidig
fra 15. klokken 23 UTC til 16. klokken 03 UTC
Vind 5 kt fra Nord-nordøst
Midlertidig
fra 16. klokken 03 UTC til 16. klokken 09 UTC
Vind 10 kt fra Vest

TAF: VHHH 151700Z 1518/1624 10010KT 9999 FEW030 TX27/1606Z TN21/1522Z TN21/1622Z TEMPO 1523/1603 02005KT TEMPO 1603/1609 27010KT

Værobservasjoner og værvarsel for over 4000 flyplasser (METAR- og TAF-rapporter).

Tilgjengelige stasjoner er representert av de røde og gule prikkene på kartet.

Hold musepekeren over prikken for å se navnet på stasjonen.

Klikk så for å se værobservasjoner og -varsler.

For å forandre kartet kan du klikke på den grønne knappen med svart kryss for å zoome inn, på den grønne knappen med strek for å zoome ut, eller på de grønne pilene for å se tilstøtende kart.


METAR-TAF: